sensor_id;sensor_type;location;lat;lon;timestamp;temperature;humidity
43987;DHT22;29650;47.378;8.300;2023-08-20T00:01:54;23.20;79.80
43987;DHT22;29650;47.378;8.300;2023-08-20T00:04:25;23.30;79.80
43987;DHT22;29650;47.378;8.300;2023-08-20T00:06:53;23.30;78.10
43987;DHT22;29650;47.378;8.300;2023-08-20T00:09:20;23.30;77.80
43987;DHT22;29650;47.378;8.300;2023-08-20T00:11:46;23.30;79.00
43987;DHT22;29650;47.378;8.300;2023-08-20T00:14:17;23.40;78.50
43987;DHT22;29650;47.378;8.300;2023-08-20T00:16:45;23.10;83.40
43987;DHT22;29650;47.378;8.300;2023-08-20T00:19:12;22.90;88.10
43987;DHT22;29650;47.378;8.300;2023-08-20T00:21:41;22.70;90.50
43987;DHT22;29650;47.378;8.300;2023-08-20T00:24:11;22.70;91.30
43987;DHT22;29650;47.378;8.300;2023-08-20T00:26:39;22.70;93.40
43987;DHT22;29650;47.378;8.300;2023-08-20T00:29:06;22.60;94.80
43987;DHT22;29650;47.378;8.300;2023-08-20T00:31:34;22.70;94.40
43987;DHT22;29650;47.378;8.300;2023-08-20T00:34:01;22.80;93.20
43987;DHT22;29650;47.378;8.300;2023-08-20T00:36:28;22.70;92.80
43987;DHT22;29650;47.378;8.300;2023-08-20T00:38:55;22.80;92.50
43987;DHT22;29650;47.378;8.300;2023-08-20T00:41:22;22.70;90.40
43987;DHT22;29650;47.378;8.300;2023-08-20T00:43:49;22.80;90.00
43987;DHT22;29650;47.378;8.300;2023-08-20T00:46:16;22.90;90.00
43987;DHT22;29650;47.378;8.300;2023-08-20T00:48:44;23.00;89.40
43987;DHT22;29650;47.378;8.300;2023-08-20T00:51:11;22.90;88.70
43987;DHT22;29650;47.378;8.300;2023-08-20T00:53:38;23.00;88.00
43987;DHT22;29650;47.378;8.300;2023-08-20T00:56:05;22.90;88.40
43987;DHT22;29650;47.378;8.300;2023-08-20T00:58:32;22.90;88.30
43987;DHT22;29650;47.378;8.300;2023-08-20T01:01:00;22.80;88.40
43987;DHT22;29650;47.378;8.300;2023-08-20T01:03:26;22.80;89.20
43987;DHT22;29650;47.378;8.300;2023-08-20T01:06:08;22.70;90.60
43987;DHT22;29650;47.378;8.300;2023-08-20T01:08:39;21.80;90.60
43987;DHT22;29650;47.378;8.300;2023-08-20T01:11:12;22.50;91.10
43987;DHT22;29650;47.378;8.300;2023-08-20T01:13:41;22.30;93.70
43987;DHT22;29650;47.378;8.300;2023-08-20T01:16:08;22.30;97.60
43987;DHT22;29650;47.378;8.300;2023-08-20T01:18:36;22.20;97.80
43987;DHT22;29650;47.378;8.300;2023-08-20T01:21:17;22.30;98.20
43987;DHT22;29650;47.378;8.300;2023-08-20T01:24:01;22.10;99.10
43987;DHT22;29650;47.378;8.300;2023-08-20T01:26:48;22.10;99.70
43987;DHT22;29650;47.378;8.300;2023-08-20T01:29:18;22.20;97.10
43987;DHT22;29650;47.378;8.300;2023-08-20T01:31:46;22.30;95.30
43987;DHT22;29650;47.378;8.300;2023-08-20T01:34:13;22.40;94.70
43987;DHT22;29650;47.378;8.300;2023-08-20T01:36:41;22.40;94.70
43987;DHT22;29650;47.378;8.300;2023-08-20T01:39:08;22.40;94.40
43987;DHT22;29650;47.378;8.300;2023-08-20T01:41:34;22.40;94.50
43987;DHT22;29650;47.378;8.300;2023-08-20T01:44:01;22.40;94.00
43987;DHT22;29650;47.378;8.300;2023-08-20T01:46:30;22.30;94.70
43987;DHT22;29650;47.378;8.300;2023-08-20T01:48:57;22.20;95.40
43987;DHT22;29650;47.378;8.300;2023-08-20T01:51:24;22.20;95.50
43987;DHT22;29650;47.378;8.300;2023-08-20T01:53:51;22.10;96.00
43987;DHT22;29650;47.378;8.300;2023-08-20T01:56:18;21.90;98.50
43987;DHT22;29650;47.378;8.300;2023-08-20T01:58:45;21.90;99.40
43987;DHT22;29650;47.378;8.300;2023-08-20T02:01:12;21.90;99.90
43987;DHT22;29650;47.378;8.300;2023-08-20T02:03:40;21.90;99.90
43987;DHT22;29650;47.378;8.300;2023-08-20T02:06:07;22.00;99.90
43987;DHT22;29650;47.378;8.300;2023-08-20T02:08:34;22.10;99.40
43987;DHT22;29650;47.378;8.300;2023-08-20T02:11:01;22.10;98.70
43987;DHT22;29650;47.378;8.300;2023-08-20T02:13:29;22.00;98.50
43987;DHT22;29650;47.378;8.300;2023-08-20T02:16:00;22.00;99.30
43987;DHT22;29650;47.378;8.300;2023-08-20T02:18:28;22.00;99.90
43987;DHT22;29650;47.378;8.300;2023-08-20T02:20:56;21.90;99.90
43987;DHT22;29650;47.378;8.300;2023-08-20T02:23:23;21.90;99.90
43987;DHT22;29650;47.378;8.300;2023-08-20T02:25:50;21.90;99.90
43987;DHT22;29650;47.378;8.300;2023-08-20T02:28:17;21.90;99.90
43987;DHT22;29650;47.378;8.300;2023-08-20T02:30:45;22.00;99.90
43987;DHT22;29650;47.378;8.300;2023-08-20T02:33:13;21.90;99.90
43987;DHT22;29650;47.378;8.300;2023-08-20T02:35:40;21.80;99.90
43987;DHT22;29650;47.378;8.300;2023-08-20T02:38:08;21.80;99.90
43987;DHT22;29650;47.378;8.300;2023-08-20T02:40:39;21.90;99.90
43987;DHT22;29650;47.378;8.300;2023-08-20T02:43:07;21.80;99.90
43987;DHT22;29650;47.378;8.300;2023-08-20T02:45:39;21.70;99.90
43987;DHT22;29650;47.378;8.300;2023-08-20T02:48:07;21.60;99.90
43987;DHT22;29650;47.378;8.300;2023-08-20T02:50:34;21.30;99.90
43987;DHT22;29650;47.378;8.300;2023-08-20T02:53:01;21.40;99.90
43987;DHT22;29650;47.378;8.300;2023-08-20T02:55:30;21.30;99.90
43987;DHT22;29650;47.378;8.300;2023-08-20T02:57:57;21.30;99.90
43987;DHT22;29650;47.378;8.300;2023-08-20T03:00:24;21.50;99.90
43987;DHT22;29650;47.378;8.300;2023-08-20T03:02:51;21.50;99.90
43987;DHT22;29650;47.378;8.300;2023-08-20T03:05:18;21.60;99.90
43987;DHT22;29650;47.378;8.300;2023-08-20T03:07:45;21.70;99.90
43987;DHT22;29650;47.378;8.300;2023-08-20T03:10:12;21.70;99.90
43987;DHT22;29650;47.378;8.300;2023-08-20T03:12:41;21.70;99.90
43987;DHT22;29650;47.378;8.300;2023-08-20T03:15:08;21.70;99.90
43987;DHT22;29650;47.378;8.300;2023-08-20T03:17:35;21.50;99.90
43987;DHT22;29650;47.378;8.300;2023-08-20T03:20:02;21.40;99.90
43987;DHT22;29650;47.378;8.300;2023-08-20T03:22:32;21.30;99.90
43987;DHT22;29650;47.378;8.300;2023-08-20T03:24:59;21.20;99.90
43987;DHT22;29650;47.378;8.300;2023-08-20T03:27:26;21.20;99.90
43987;DHT22;29650;47.378;8.300;2023-08-20T03:29:54;21.30;99.90
43987;DHT22;29650;47.378;8.300;2023-08-20T03:32:21;21.40;99.90
43987;DHT22;29650;47.378;8.300;2023-08-20T03:34:48;21.30;99.90
43987;DHT22;29650;47.378;8.300;2023-08-20T03:37:15;21.30;99.90
43987;DHT22;29650;47.378;8.300;2023-08-20T03:39:43;21.20;99.90
43987;DHT22;29650;47.378;8.300;2023-08-20T03:42:10;21.10;99.90
43987;DHT22;29650;47.378;8.300;2023-08-20T03:44:37;21.20;99.90
43987;DHT22;29650;47.378;8.300;2023-08-20T03:47:05;21.20;99.90
43987;DHT22;29650;47.378;8.300;2023-08-20T03:49:32;21.30;99.90
43987;DHT22;29650;47.378;8.300;2023-08-20T03:51:59;21.30;99.90
43987;DHT22;29650;47.378;8.300;2023-08-20T03:54:27;21.40;99.90
43987;DHT22;29650;47.378;8.300;2023-08-20T03:56:54;21.20;99.90
43987;DHT22;29650;47.378;8.300;2023-08-20T03:59:21;21.20;99.90
43987;DHT22;29650;47.378;8.300;2023-08-20T04:01:48;21.10;99.90
43987;DHT22;29650;47.378;8.300;2023-08-20T04:04:17;21.10;99.90
43987;DHT22;29650;47.378;8.300;2023-08-20T04:06:44;20.90;99.90
43987;DHT22;29650;47.378;8.300;2023-08-20T04:09:10;20.90;99.90
43987;DHT22;29650;47.378;8.300;2023-08-20T04:11:37;20.90;99.90
43987;DHT22;29650;47.378;8.300;2023-08-20T04:14:04;20.90;99.90
43987;DHT22;29650;47.378;8.300;2023-08-20T04:16:31;21.00;99.90
43987;DHT22;29650;47.378;8.300;2023-08-20T04:18:58;21.00;99.90
43987;DHT22;29650;47.378;8.300;2023-08-20T04:21:26;21.00;99.90
43987;DHT22;29650;47.378;8.300;2023-08-20T04:23:53;21.10;99.90
43987;DHT22;29650;47.378;8.300;2023-08-20T04:26:20;21.10;99.90
43987;DHT22;29650;47.378;8.300;2023-08-20T04:28:47;21.10;99.90
43987;DHT22;29650;47.378;8.300;2023-08-20T04:31:14;21.00;99.90
43987;DHT22;29650;47.378;8.300;2023-08-20T04:33:41;21.00;99.90
43987;DHT22;29650;47.378;8.300;2023-08-20T04:36:08;21.00;99.90
43987;DHT22;29650;47.378;8.300;2023-08-20T04:38:36;20.80;99.90
43987;DHT22;29650;47.378;8.300;2023-08-20T04:41:03;20.70;99.90
43987;DHT22;29650;47.378;8.300;2023-08-20T04:43:30;20.60;99.90
43987;DHT22;29650;47.378;8.300;2023-08-20T04:45:57;20.60;99.90
43987;DHT22;29650;47.378;8.300;2023-08-20T04:48:24;20.70;99.90
43987;DHT22;29650;47.378;8.300;2023-08-20T04:50:51;20.70;99.90
43987;DHT22;29650;47.378;8.300;2023-08-20T04:53:18;20.80;99.90
43987;DHT22;29650;47.378;8.300;2023-08-20T04:55:46;20.80;99.90
43987;DHT22;29650;47.378;8.300;2023-08-20T04:58:13;20.90;99.90
43987;DHT22;29650;47.378;8.300;2023-08-20T05:00:40;20.90;99.90
43987;DHT22;29650;47.378;8.300;2023-08-20T05:03:07;20.90;99.90
43987;DHT22;29650;47.378;8.300;2023-08-20T05:05:33;21.00;99.90
43987;DHT22;29650;47.378;8.300;2023-08-20T05:08:00;21.20;99.90
43987;DHT22;29650;47.378;8.300;2023-08-20T05:10:28;21.00;99.90
43987;DHT22;29650;47.378;8.300;2023-08-20T05:12:56;21.10;99.90
43987;DHT22;29650;47.378;8.300;2023-08-20T05:15:23;21.20;99.90
43987;DHT22;29650;47.378;8.300;2023-08-20T05:17:50;21.30;99.90
43987;DHT22;29650;47.378;8.300;2023-08-20T05:20:17;21.30;99.90
43987;DHT22;29650;47.378;8.300;2023-08-20T05:22:44;21.30;99.90
43987;DHT22;29650;47.378;8.300;2023-08-20T05:25:11;21.30;99.90
43987;DHT22;29650;47.378;8.300;2023-08-20T05:27:38;21.20;99.90
43987;DHT22;29650;47.378;8.300;2023-08-20T05:30:07;21.30;99.90
43987;DHT22;29650;47.378;8.300;2023-08-20T05:32:35;21.30;99.90
43987;DHT22;29650;47.378;8.300;2023-08-20T05:35:02;21.50;99.90
43987;DHT22;29650;47.378;8.300;2023-08-20T05:37:29;21.30;99.90
43987;DHT22;29650;47.378;8.300;2023-08-20T05:39:56;21.40;99.90
43987;DHT22;29650;47.378;8.300;2023-08-20T05:42:23;21.30;99.90
43987;DHT22;29650;47.378;8.300;2023-08-20T05:44:50;21.30;99.90
43987;DHT22;29650;47.378;8.300;2023-08-20T05:47:18;21.50;99.90
43987;DHT22;29650;47.378;8.300;2023-08-20T05:49:45;21.50;99.90
43987;DHT22;29650;47.378;8.300;2023-08-20T05:52:12;21.40;99.90
43987;DHT22;29650;47.378;8.300;2023-08-20T05:54:39;21.60;99.90
43987;DHT22;29650;47.378;8.300;2023-08-20T05:57:06;21.70;99.90
43987;DHT22;29650;47.378;8.300;2023-08-20T05:59:33;21.80;99.90
43987;DHT22;29650;47.378;8.300;2023-08-20T06:02:01;21.80;99.90
43987;DHT22;29650;47.378;8.300;2023-08-20T06:04:30;22.00;99.90
43987;DHT22;29650;47.378;8.300;2023-08-20T06:06:57;22.20;99.90
43987;DHT22;29650;47.378;8.300;2023-08-20T06:09:24;22.10;99.90
43987;DHT22;29650;47.378;8.300;2023-08-20T06:11:51;22.10;99.90
43987;DHT22;29650;47.378;8.300;2023-08-20T06:14:18;22.10;99.90
43987;DHT22;29650;47.378;8.300;2023-08-20T06:16:45;22.20;99.90
43987;DHT22;29650;47.378;8.300;2023-08-20T06:19:11;22.30;99.90
43987;DHT22;29650;47.378;8.300;2023-08-20T06:21:40;22.40;99.90
43987;DHT22;29650;47.378;8.300;2023-08-20T06:24:07;22.60;99.90
43987;DHT22;29650;47.378;8.300;2023-08-20T06:26:34;22.90;99.20
43987;DHT22;29650;47.378;8.300;2023-08-20T06:29:01;22.90;97.10
43987;DHT22;29650;47.378;8.300;2023-08-20T06:31:28;23.10;96.40
43987;DHT22;29650;47.378;8.300;2023-08-20T06:33:55;23.30;95.80
43987;DHT22;29650;47.378;8.300;2023-08-20T06:36:22;23.40;94.30
43987;DHT22;29650;47.378;8.300;2023-08-20T06:38:50;23.30;93.00
43987;DHT22;29650;47.378;8.300;2023-08-20T06:41:17;23.20;92.80
43987;DHT22;29650;47.378;8.300;2023-08-20T06:43:44;23.30;93.70
43987;DHT22;29650;47.378;8.300;2023-08-20T06:46:11;23.60;94.70
43987;DHT22;29650;47.378;8.300;2023-08-20T06:48:38;23.80;93.70
43987;DHT22;29650;47.378;8.300;2023-08-20T06:51:11;23.90;92.00
43987;DHT22;29650;47.378;8.300;2023-08-20T06:53:38;23.70;92.50
43987;DHT22;29650;47.378;8.300;2023-08-20T06:56:07;23.70;92.30
43987;DHT22;29650;47.378;8.300;2023-08-20T06:58:35;23.70;93.10
43987;DHT22;29650;47.378;8.300;2023-08-20T07:01:01;23.80;93.00
43987;DHT22;29650;47.378;8.300;2023-08-20T07:03:34;23.70;94.50
43987;DHT22;29650;47.378;8.300;2023-08-20T07:06:01;23.80;92.40
43987;DHT22;29650;47.378;8.300;2023-08-20T07:08:28;24.20;91.00
43987;DHT22;29650;47.378;8.300;2023-08-20T07:10:55;24.20;91.00
43987;DHT22;29650;47.378;8.300;2023-08-20T07:13:23;24.20;88.20
43987;DHT22;29650;47.378;8.300;2023-08-20T07:15:51;24.00;89.10
43987;DHT22;29650;47.378;8.300;2023-08-20T07:18:18;24.30;88.70
43987;DHT22;29650;47.378;8.300;2023-08-20T07:20:45;24.50;84.70
43987;DHT22;29650;47.378;8.300;2023-08-20T07:23:12;24.50;82.30
43987;DHT22;29650;47.378;8.300;2023-08-20T07:25:40;24.50;80.80
43987;DHT22;29650;47.378;8.300;2023-08-20T07:28:08;24.70;76.60
43987;DHT22;29650;47.378;8.300;2023-08-20T07:30:36;24.70;73.40
43987;DHT22;29650;47.378;8.300;2023-08-20T07:33:04;24.90;73.40
43987;DHT22;29650;47.378;8.300;2023-08-20T07:35:31;25.00;73.10
43987;DHT22;29650;47.378;8.300;2023-08-20T07:37:58;25.00;74.60
43987;DHT22;29650;47.378;8.300;2023-08-20T07:40:25;25.10;75.90
43987;DHT22;29650;47.378;8.300;2023-08-20T07:42:52;25.20;76.70
43987;DHT22;29650;47.378;8.300;2023-08-20T07:45:19;25.20;76.10
43987;DHT22;29650;47.378;8.300;2023-08-20T07:47:47;25.20;77.00
43987;DHT22;29650;47.378;8.300;2023-08-20T07:50:14;25.20;75.30
43987;DHT22;29650;47.378;8.300;2023-08-20T07:52:40;25.30;74.00
43987;DHT22;29650;47.378;8.300;2023-08-20T07:55:08;25.10;75.50
43987;DHT22;29650;47.378;8.300;2023-08-20T07:57:35;25.20;74.00
43987;DHT22;29650;47.378;8.300;2023-08-20T08:00:02;25.40;72.90
43987;DHT22;29650;47.378;8.300;2023-08-20T08:02:30;25.50;73.20
43987;DHT22;29650;47.378;8.300;2023-08-20T08:04:58;25.60;71.20
43987;DHT22;29650;47.378;8.300;2023-08-20T08:07:26;25.90;69.50
43987;DHT22;29650;47.378;8.300;2023-08-20T08:09:53;25.70;65.10
43987;DHT22;29650;47.378;8.300;2023-08-20T08:12:19;26.00;67.30
43987;DHT22;29650;47.378;8.300;2023-08-20T08:14:47;25.90;67.10
43987;DHT22;29650;47.378;8.300;2023-08-20T08:17:14;26.00;63.40
43987;DHT22;29650;47.378;8.300;2023-08-20T08:19:41;26.20;62.20
43987;DHT22;29650;47.378;8.300;2023-08-20T08:22:10;26.30;61.20
43987;DHT22;29650;47.378;8.300;2023-08-20T08:24:37;26.40;61.60
43987;DHT22;29650;47.378;8.300;2023-08-20T08:27:03;26.40;61.60
43987;DHT22;29650;47.378;8.300;2023-08-20T08:29:30;26.20;60.10
43987;DHT22;29650;47.378;8.300;2023-08-20T08:31:57;26.30;59.50
43987;DHT22;29650;47.378;8.300;2023-08-20T08:34:24;26.40;59.40
43987;DHT22;29650;47.378;8.300;2023-08-20T08:36:51;26.50;60.80
43987;DHT22;29650;47.378;8.300;2023-08-20T08:39:20;26.40;60.30
43987;DHT22;29650;47.378;8.300;2023-08-20T08:41:50;26.50;61.20
43987;DHT22;29650;47.378;8.300;2023-08-20T08:44:17;26.60;58.60
43987;DHT22;29650;47.378;8.300;2023-08-20T08:46:47;26.60;57.60
43987;DHT22;29650;47.378;8.300;2023-08-20T08:49:15;26.70;55.50
43987;DHT22;29650;47.378;8.300;2023-08-20T08:51:42;26.70;54.80
43987;DHT22;29650;47.378;8.300;2023-08-20T08:54:12;26.90;55.70
43987;DHT22;29650;47.378;8.300;2023-08-20T08:56:41;27.10;54.00
43987;DHT22;29650;47.378;8.300;2023-08-20T08:59:08;27.10;53.40
43987;DHT22;29650;47.378;8.300;2023-08-20T09:01:38;27.00;52.50
43987;DHT22;29650;47.378;8.300;2023-08-20T09:04:05;27.20;51.50
43987;DHT22;29650;47.378;8.300;2023-08-20T09:06:44;27.20;49.70
43987;DHT22;29650;47.378;8.300;2023-08-20T09:09:11;27.40;48.80
43987;DHT22;29650;47.378;8.300;2023-08-20T09:11:39;27.30;48.10
43987;DHT22;29650;47.378;8.300;2023-08-20T09:14:07;27.40;47.10
43987;DHT22;29650;47.378;8.300;2023-08-20T09:16:34;27.60;47.30
43987;DHT22;29650;47.378;8.300;2023-08-20T09:19:01;27.80;47.10
43987;DHT22;29650;47.378;8.300;2023-08-20T09:21:29;27.90;47.70
43987;DHT22;29650;47.378;8.300;2023-08-20T09:23:56;27.90;47.50
43987;DHT22;29650;47.378;8.300;2023-08-20T09:26:23;27.80;49.30
43987;DHT22;29650;47.378;8.300;2023-08-20T09:28:54;27.90;49.60
43987;DHT22;29650;47.378;8.300;2023-08-20T09:31:37;27.70;49.10
43987;DHT22;29650;47.378;8.300;2023-08-20T09:34:04;27.90;48.80
43987;DHT22;29650;47.378;8.300;2023-08-20T09:36:32;28.00;48.60
43987;DHT22;29650;47.378;8.300;2023-08-20T09:39:00;27.80;48.50
43987;DHT22;29650;47.378;8.300;2023-08-20T09:41:27;28.00;46.60
43987;DHT22;29650;47.378;8.300;2023-08-20T09:43:57;28.20;44.60
43987;DHT22;29650;47.378;8.300;2023-08-20T09:46:27;28.40;44.40
43987;DHT22;29650;47.378;8.300;2023-08-20T09:48:55;28.30;44.70
43987;DHT22;29650;47.378;8.300;2023-08-20T09:51:25;28.50;44.70
43987;DHT22;29650;47.378;8.300;2023-08-20T09:53:58;28.70;44.30
43987;DHT22;29650;47.378;8.300;2023-08-20T09:56:28;28.60;42.90
43987;DHT22;29650;47.378;8.300;2023-08-20T09:58:57;28.70;44.30
43987;DHT22;29650;47.378;8.300;2023-08-20T10:01:26;28.70;44.70
43987;DHT22;29650;47.378;8.300;2023-08-20T10:03:53;28.70;43.90
43987;DHT22;29650;47.378;8.300;2023-08-20T10:06:20;28.80;42.00
43987;DHT22;29650;47.378;8.300;2023-08-20T10:08:48;28.80;42.50
43987;DHT22;29650;47.378;8.300;2023-08-20T10:11:16;29.10;43.00
43987;DHT22;29650;47.378;8.300;2023-08-20T10:13:44;29.20;41.90
43987;DHT22;29650;47.378;8.300;2023-08-20T10:16:12;29.40;45.50
43987;DHT22;29650;47.378;8.300;2023-08-20T10:18:40;29.30;41.00
43987;DHT22;29650;47.378;8.300;2023-08-20T10:21:08;29.30;40.70
43987;DHT22;29650;47.378;8.300;2023-08-20T10:23:38;29.50;40.30
43987;DHT22;29650;47.378;8.300;2023-08-20T10:26:07;29.30;40.60
43987;DHT22;29650;47.378;8.300;2023-08-20T10:28:34;29.40;40.50
43987;DHT22;29650;47.378;8.300;2023-08-20T10:31:06;29.60;41.00
43987;DHT22;29650;47.378;8.300;2023-08-20T10:33:35;29.50;38.50
43987;DHT22;29650;47.378;8.300;2023-08-20T10:36:13;29.70;39.30
43987;DHT22;29650;47.378;8.300;2023-08-20T10:38:41;29.80;39.00
43987;DHT22;29650;47.378;8.300;2023-08-20T10:41:08;29.70;38.50
43987;DHT22;29650;47.378;8.300;2023-08-20T10:43:37;29.80;36.90
43987;DHT22;29650;47.378;8.300;2023-08-20T10:46:05;29.90;36.70
43987;DHT22;29650;47.378;8.300;2023-08-20T10:48:33;30.00;36.20
43987;DHT22;29650;47.378;8.300;2023-08-20T10:51:12;30.00;35.20
43987;DHT22;29650;47.378;8.300;2023-08-20T10:53:41;30.00;35.00
43987;DHT22;29650;47.378;8.300;2023-08-20T10:56:12;30.10;33.90
43987;DHT22;29650;47.378;8.300;2023-08-20T10:58:45;30.20;32.20
43987;DHT22;29650;47.378;8.300;2023-08-20T11:01:17;30.40;32.60
43987;DHT22;29650;47.378;8.300;2023-08-20T11:03:45;30.40;32.70
43987;DHT22;29650;47.378;8.300;2023-08-20T11:06:14;30.50;30.90
43987;DHT22;29650;47.378;8.300;2023-08-20T11:08:41;30.70;29.70
43987;DHT22;29650;47.378;8.300;2023-08-20T11:11:10;30.60;29.30
43987;DHT22;29650;47.378;8.300;2023-08-20T11:13:38;30.70;28.20
43987;DHT22;29650;47.378;8.300;2023-08-20T11:16:06;30.80;28.80
43987;DHT22;29650;47.378;8.300;2023-08-20T11:18:34;30.60;29.10
43987;DHT22;29650;47.378;8.300;2023-08-20T11:21:02;30.80;29.00
43987;DHT22;29650;47.378;8.300;2023-08-20T11:23:31;30.70;27.50
43987;DHT22;29650;47.378;8.300;2023-08-20T11:25:59;30.90;28.40
43987;DHT22;29650;47.378;8.300;2023-08-20T11:28:27;30.70;30.00
43987;DHT22;29650;47.378;8.300;2023-08-20T11:30:54;30.80;29.80
43987;DHT22;29650;47.378;8.300;2023-08-20T11:33:22;31.20;32.00
43987;DHT22;29650;47.378;8.300;2023-08-20T11:35:49;31.20;30.60
43987;DHT22;29650;47.378;8.300;2023-08-20T11:38:16;31.50;33.10
43987;DHT22;29650;47.378;8.300;2023-08-20T11:40:45;31.40;30.10
43987;DHT22;29650;47.378;8.300;2023-08-20T11:43:12;31.50;29.30
43987;DHT22;29650;47.378;8.300;2023-08-20T11:45:46;31.40;29.30
43987;DHT22;29650;47.378;8.300;2023-08-20T11:48:13;31.40;29.10
43987;DHT22;29650;47.378;8.300;2023-08-20T11:50:40;31.50;28.00
43987;DHT22;29650;47.378;8.300;2023-08-20T11:53:08;31.70;29.30
43987;DHT22;29650;47.378;8.300;2023-08-20T11:55:35;31.90;30.20
43987;DHT22;29650;47.378;8.300;2023-08-20T11:58:04;31.80;28.90
43987;DHT22;29650;47.378;8.300;2023-08-20T12:00:31;31.90;30.30
43987;DHT22;29650;47.378;8.300;2023-08-20T12:02:58;31.60;29.30
43987;DHT22;29650;47.378;8.300;2023-08-20T12:05:28;31.70;29.30
43987;DHT22;29650;47.378;8.300;2023-08-20T12:07:56;31.80;29.20
43987;DHT22;29650;47.378;8.300;2023-08-20T12:10:23;31.90;29.00
43987;DHT22;29650;47.378;8.300;2023-08-20T12:12:51;32.00;29.10
43987;DHT22;29650;47.378;8.300;2023-08-20T12:15:19;32.20;29.10
43987;DHT22;29650;47.378;8.300;2023-08-20T12:18:00;32.40;28.70
43987;DHT22;29650;47.378;8.300;2023-08-20T12:20:29;32.10;29.50
43987;DHT22;29650;47.378;8.300;2023-08-20T12:23:01;31.80;28.80
43987;DHT22;29650;47.378;8.300;2023-08-20T12:25:31;32.10;28.80
43987;DHT22;29650;47.378;8.300;2023-08-20T12:27:57;32.20;29.20
43987;DHT22;29650;47.378;8.300;2023-08-20T12:30:26;32.40;28.50
43987;DHT22;29650;47.378;8.300;2023-08-20T12:32:53;32.40;27.70
43987;DHT22;29650;47.378;8.300;2023-08-20T12:35:20;32.60;28.30
43987;DHT22;29650;47.378;8.300;2023-08-20T12:37:47;32.60;29.20
43987;DHT22;29650;47.378;8.300;2023-08-20T12:40:14;32.50;28.00
43987;DHT22;29650;47.378;8.300;2023-08-20T12:42:41;32.40;28.40
43987;DHT22;29650;47.378;8.300;2023-08-20T12:45:08;32.60;27.30
43987;DHT22;29650;47.378;8.300;2023-08-20T12:47:37;32.60;26.60
43987;DHT22;29650;47.378;8.300;2023-08-20T12:50:05;32.60;26.80
43987;DHT22;29650;47.378;8.300;2023-08-20T12:52:32;32.80;25.70
43987;DHT22;29650;47.378;8.300;2023-08-20T12:54:59;32.80;26.30
43987;DHT22;29650;47.378;8.300;2023-08-20T12:57:26;32.50;26.40
43987;DHT22;29650;47.378;8.300;2023-08-20T12:59:53;32.90;26.30
43987;DHT22;29650;47.378;8.300;2023-08-20T13:02:20;32.60;24.20
43987;DHT22;29650;47.378;8.300;2023-08-20T13:04:49;33.00;26.50
43987;DHT22;29650;47.378;8.300;2023-08-20T13:07:16;32.80;25.00
43987;DHT22;29650;47.378;8.300;2023-08-20T13:09:44;32.80;24.70
43987;DHT22;29650;47.378;8.300;2023-08-20T13:12:11;33.00;24.80
43987;DHT22;29650;47.378;8.300;2023-08-20T13:14:40;33.10;24.00
43987;DHT22;29650;47.378;8.300;2023-08-20T13:17:08;33.30;24.20
43987;DHT22;29650;47.378;8.300;2023-08-20T13:19:35;33.30;23.60
43987;DHT22;29650;47.378;8.300;2023-08-20T13:22:04;33.20;23.40
43987;DHT22;29650;47.378;8.300;2023-08-20T13:24:31;33.50;23.90
43987;DHT22;29650;47.378;8.300;2023-08-20T13:26:58;33.30;23.50
43987;DHT22;29650;47.378;8.300;2023-08-20T13:29:25;33.40;24.10
43987;DHT22;29650;47.378;8.300;2023-08-20T13:31:52;33.50;24.10
43987;DHT22;29650;47.378;8.300;2023-08-20T13:34:19;33.40;23.70
43987;DHT22;29650;47.378;8.300;2023-08-20T13:36:46;33.30;22.70
43987;DHT22;29650;47.378;8.300;2023-08-20T13:39:15;33.40;22.50
43987;DHT22;29650;47.378;8.300;2023-08-20T13:41:43;33.60;22.40
43987;DHT22;29650;47.378;8.300;2023-08-20T13:44:10;33.30;22.90
43987;DHT22;29650;47.378;8.300;2023-08-20T13:46:37;33.30;23.20
43987;DHT22;29650;47.378;8.300;2023-08-20T13:49:04;33.50;21.90
43987;DHT22;29650;47.378;8.300;2023-08-20T13:51:31;33.60;21.60
43987;DHT22;29650;47.378;8.300;2023-08-20T13:53:58;33.40;22.10
43987;DHT22;29650;47.378;8.300;2023-08-20T13:56:26;33.30;22.60
43987;DHT22;29650;47.378;8.300;2023-08-20T13:58:54;33.30;21.60
43987;DHT22;29650;47.378;8.300;2023-08-20T14:01:20;33.90;22.70
43987;DHT22;29650;47.378;8.300;2023-08-20T14:03:47;34.00;21.50
43987;DHT22;29650;47.378;8.300;2023-08-20T14:06:15;34.00;20.10
43987;DHT22;29650;47.378;8.300;2023-08-20T14:08:43;34.20;20.30
43987;DHT22;29650;47.378;8.300;2023-08-20T14:11:10;34.40;20.90
43987;DHT22;29650;47.378;8.300;2023-08-20T14:13:38;34.50;20.70
43987;DHT22;29650;47.378;8.300;2023-08-20T14:16:05;34.50;20.80
43987;DHT22;29650;47.378;8.300;2023-08-20T14:18:32;34.60;19.20
43987;DHT22;29650;47.378;8.300;2023-08-20T14:20:59;34.20;19.20
43987;DHT22;29650;47.378;8.300;2023-08-20T14:23:26;33.90;19.10
43987;DHT22;29650;47.378;8.300;2023-08-20T14:25:53;34.00;19.70
43987;DHT22;29650;47.378;8.300;2023-08-20T14:28:21;34.30;18.80
43987;DHT22;29650;47.378;8.300;2023-08-20T14:30:50;34.60;20.10
43987;DHT22;29650;47.378;8.300;2023-08-20T14:33:19;34.80;19.20
43987;DHT22;29650;47.378;8.300;2023-08-20T14:35:46;34.90;18.40
43987;DHT22;29650;47.378;8.300;2023-08-20T14:38:13;34.90;18.10
43987;DHT22;29650;47.378;8.300;2023-08-20T14:40:40;34.60;19.00
43987;DHT22;29650;47.378;8.300;2023-08-20T14:43:07;34.50;18.70
43987;DHT22;29650;47.378;8.300;2023-08-20T14:45:34;34.80;17.20
43987;DHT22;29650;47.378;8.300;2023-08-20T14:48:03;34.90;16.30
43987;DHT22;29650;47.378;8.300;2023-08-20T14:50:30;34.90;16.50
43987;DHT22;29650;47.378;8.300;2023-08-20T14:52:57;35.00;17.30
43987;DHT22;29650;47.378;8.300;2023-08-20T14:55:24;35.00;16.10
43987;DHT22;29650;47.378;8.300;2023-08-20T14:57:51;35.00;17.00
43987;DHT22;29650;47.378;8.300;2023-08-20T15:00:18;34.90;16.50
43987;DHT22;29650;47.378;8.300;2023-08-20T15:02:48;34.90;17.30
43987;DHT22;29650;47.378;8.300;2023-08-20T15:05:16;35.00;16.90
43987;DHT22;29650;47.378;8.300;2023-08-20T15:07:43;34.90;17.50
43987;DHT22;29650;47.378;8.300;2023-08-20T15:10:10;34.70;15.20
43987;DHT22;29650;47.378;8.300;2023-08-20T15:12:37;35.00;14.70
43987;DHT22;29650;47.378;8.300;2023-08-20T15:15:05;35.10;14.70
43987;DHT22;29650;47.378;8.300;2023-08-20T15:17:34;35.30;14.70
43987;DHT22;29650;47.378;8.300;2023-08-20T15:20:02;35.10;15.30
43987;DHT22;29650;47.378;8.300;2023-08-20T15:22:32;34.70;16.10
43987;DHT22;29650;47.378;8.300;2023-08-20T15:24:58;35.00;16.30
43987;DHT22;29650;47.378;8.300;2023-08-20T15:27:25;35.10;16.30
43987;DHT22;29650;47.378;8.300;2023-08-20T15:29:52;35.20;15.90
43987;DHT22;29650;47.378;8.300;2023-08-20T15:32:20;34.90;16.10
43987;DHT22;29650;47.378;8.300;2023-08-20T15:34:47;34.60;15.90